»·PEaware :: ASA1949 KSAN-KSFO

ASA1949 :: KSAN-KSFO

FLIGHT INFORMATION

Flight Status: Arrived
Operator:
Alaska Airlines
More flights by this operator :: More flights under this callsign
Pilot: Colin A. (19898)
Aircraft: MCDONNELL-DOUGLAS MD-82
(MD82)
More flights by this aircraft type
Origin: KSAN San Diego Intl-Lindbergh
United States
Destination: KSFO San Francisco Intl
United States
More flights between these airports :: More routes between these airports
Route: +PADRZ2 IKAYE RIZIN SPLNT STOKD SERFR SERFR3
File this flight plan on PilotEdge
Remarks: PBN / A1B2 DOF / 180730 REG / N882SB EET / KZOA0036 OPR / ASA PER / C RMK / TCAS SIMBRIEF
Altitude:
(Current/Filed)
34,000ft
Speed:
(Current/Filed)
448kts
Departed: 30-Jul-18 10:14 AM
Arrived: 30-Jul-18 11:26 AM
Distance/Time
Traveled:
388nm/1:12
Distance/Time
To Go:
Arrived

Flight Plot

Page will automatically refresh every two minutes.

Flight plan parsing failed; only flown route is shown


Map Options




Map Legend


Flown Route
Filed Route
Departure Airport
Arrival Airport
Navaid (VOR, NDB)
Fix

Horizontal Profiles

Position Reports

Time Latitude Longitude Heading Altitude Ground
Speed
30-Jul-18 10:02 32.733736 -117.197745 255 24ft 0kts
30-Jul-18 10:03 32.733736 -117.197745 255 24ft 0kts
30-Jul-18 10:04 32.733736 -117.197745 255 24ft 0kts
30-Jul-18 10:05 32.733736 -117.197745 255 24ft 0kts
30-Jul-18 10:06 32.733736 -117.197745 255 24ft 0kts
30-Jul-18 10:07 32.733736 -117.197745 255 24ft 0kts
30-Jul-18 10:08 32.733821 -117.197358 255 24ft 2kts
30-Jul-18 10:09 32.733851 -117.197224 255 24ft 0kts
30-Jul-18 10:10 32.733849 -117.197230 255 24ft 0kts
30-Jul-18 10:11 32.733849 -117.197233 255 24ft 0kts
30-Jul-18 10:12 32.733848 -117.197236 255 24ft 0kts
30-Jul-18 10:13 32.733855 -117.197299 273 24ft 0kts
30-Jul-18 10:14 32.733868 -117.197334 287 24ft 1kts
30-Jul-18 10:15 32.732392 -117.189016 107 24ft 47kts
30-Jul-18 10:16 32.729525 -117.176864 79 24ft 0kts
30-Jul-18 10:17 32.729552 -117.176698 78 24ft 0kts
30-Jul-18 10:18 32.732731 -117.186147 286 24ft 136kts
30-Jul-18 10:19 32.754151 -117.245872 308 2956ft 222kts
30-Jul-18 10:20 32.793862 -117.307460 304 4696ft 253kts
30-Jul-18 10:21 32.837789 -117.377597 306 6602ft 272kts
30-Jul-18 10:22 32.884695 -117.450143 306 8666ft 282kts
30-Jul-18 10:23 32.933370 -117.525516 304 10453ft 300kts
30-Jul-18 10:24 32.986812 -117.609198 304 11752ft 330kts
30-Jul-18 10:25 33.043258 -117.696909 303 13534ft 337kts
30-Jul-18 10:26 33.110206 -117.777974 315 15167ft 350kts
30-Jul-18 10:27 33.185971 -117.853106 313 16720ft 357kts
30-Jul-18 10:28 33.257508 -117.935983 307 18316ft 361kts
30-Jul-18 10:29 33.328958 -118.021641 308 19962ft 367kts
30-Jul-18 10:30 33.401900 -118.109351 307 21488ft 375kts
30-Jul-18 10:31 33.476739 -118.198974 307 22988ft 384kts
30-Jul-18 10:32 33.552864 -118.290307 306 24425ft 391kts
30-Jul-18 10:33 33.630255 -118.383668 306 25875ft 397kts
30-Jul-18 10:34 33.705300 -118.474105 306 27088ft 404kts
30-Jul-18 10:35 33.784932 -118.570239 306 28252ft 408kts
30-Jul-18 10:36 33.865487 -118.668152 305 29213ft 414kts
30-Jul-18 10:37 33.946979 -118.767498 305 30127ft 416kts
30-Jul-18 10:38 34.027944 -118.865650 304 31268ft 411kts
30-Jul-18 10:39 34.107945 -118.963574 304 32333ft 407kts
30-Jul-18 10:40 34.177206 -119.066953 291 33311ft 386kts
30-Jul-18 10:41 34.231377 -119.177783 291 34078ft 386kts
30-Jul-18 10:42 34.288415 -119.288084 292 34102ft 384kts
30-Jul-18 10:43 34.344975 -119.397938 291 34103ft 383kts
30-Jul-18 10:44 34.401193 -119.507881 292 34104ft 385kts
30-Jul-18 10:45 34.474003 -119.607933 303 34105ft 400kts
30-Jul-18 10:46 34.552983 -119.703390 303 34104ft 400kts
30-Jul-18 10:47 34.630617 -119.799335 303 34107ft 399kts
30-Jul-18 10:48 34.708683 -119.896312 303 34110ft 400kts
30-Jul-18 10:49 34.786669 -119.992970 303 34113ft 400kts
30-Jul-18 10:50 34.864711 -120.089457 303 34122ft 400kts
30-Jul-18 10:51 34.942652 -120.186792 303 34131ft 401kts
30-Jul-18 10:52 35.020304 -120.283985 304 34136ft 401kts
30-Jul-18 10:53 35.098819 -120.381398 305 34139ft 404kts
30-Jul-18 10:54 35.181553 -120.474933 307 34142ft 405kts
30-Jul-18 10:55 35.264833 -120.567737 307 34141ft 406kts
30-Jul-18 10:56 35.348200 -120.660922 307 34139ft 406kts
30-Jul-18 10:57 35.431183 -120.754750 307 34134ft 406kts
30-Jul-18 10:58 35.516647 -120.846198 312 34130ft 410kts
30-Jul-18 10:59 35.608242 -120.931030 313 34127ft 413kts
30-Jul-18 11:00 35.700148 -121.015220 313 34126ft 412kts
30-Jul-18 11:01 35.792132 -121.101129 313 33104ft 421kts
30-Jul-18 11:02 35.886965 -121.189289 314 31368ft 419kts
30-Jul-18 11:03 35.978241 -121.274702 314 29665ft 404kts
30-Jul-18 11:04 36.066554 -121.358342 317 27967ft 397kts
30-Jul-18 11:05 36.158511 -121.432122 321 26262ft 387kts
30-Jul-18 11:06 36.248697 -121.501641 322 24678ft 376kts
30-Jul-18 11:07 36.336175 -121.569670 322 23177ft 366kts
30-Jul-18 11:08 36.421211 -121.636215 323 21680ft 358kts
30-Jul-18 11:09 36.504508 -121.702250 322 20175ft 350kts
30-Jul-18 11:10 36.584687 -121.768046 323 18676ft 343kts
30-Jul-18 11:11 36.664311 -121.831621 324 17163ft 336kts
30-Jul-18 11:12 36.743354 -121.892771 332 15657ft 334kts
30-Jul-18 11:13 36.833124 -121.921903 346 14170ft 333kts
30-Jul-18 11:14 36.923276 -121.944618 346 12904ft 327kts
30-Jul-18 11:15 37.006660 -121.972566 340 11697ft 296kts
30-Jul-18 11:16 37.082479 -122.003092 341 10485ft 278kts
30-Jul-18 11:17 37.155471 -122.031715 342 9281ft 274kts
30-Jul-18 11:18 37.227934 -122.060388 342 8159ft 269kts
30-Jul-18 11:19 37.299765 -122.088846 342 7561ft 273kts
30-Jul-18 11:20 37.372127 -122.117417 341 6023ft 263kts
30-Jul-18 11:21 37.441180 -122.141322 343 4833ft 265kts
30-Jul-18 11:22 37.512547 -122.165598 342 3285ft 259kts
30-Jul-18 11:23 37.558128 -122.222320 285 2346ft 231kts
30-Jul-18 11:24 37.582549 -122.288251 297 1245ft 182kts
30-Jul-18 11:25 37.603305 -122.337962 296 468ft 147kts
30-Jul-18 11:26 37.619952 -122.377941 297 22ft 77kts
30-Jul-18 11:27 37.622131 -122.385036 267 22ft 0kts
30-Jul-18 11:28 37.621377 -122.386035 133 22ft 0kts
30-Jul-18 11:29 37.618713 -122.380032 137 22ft 17kts
30-Jul-18 11:30 37.617857 -122.380636 256 22ft 0kts
30-Jul-18 11:31 37.617857 -122.380637 256 22ft 0kts
30-Jul-18 11:32 37.617857 -122.380637 256 22ft 0kts

Navigation Log

Ident Type
Flight plan parsing failed, navigation log unavailable